Venango Regional Airport
KFKL : rendu visible

Aérodrome :











RETROUVEZ-NOUS SUR...

 
LOGIN :

S'inscrire | Disclaimer

   EN    FR    IT 

 









Légende :    VFR   VFR Marginal   IFR   IFR Intensif   IFR Très Intensif
Visi : 
Plafond : 
>= 8 km
>= 3000ft
5 à 8 km
1000 à 3000 ft
1500m à 5 km
500 à 1000 ft
800 à 1500m
200 à 500 ft
< 800m
< 200 ft
Symboles :   Orages  Brouillard  Fortes neiges  Fortes précipitations  Vent > 20 kt






- Altitude de l'aérodrome : 1540 ft


KFKL - Venango Regional

DERNIER METAR :
  • 212156Z AUTO 31005KT 10SM OVC024 M06/M11 A3046 RMK AO2 SNB06E16 SLP343 P0000 T10611111 FZRANO

METARs EXPIRÉS :
  • 212056Z AUTO 29006KT 10SM OVC026 M06/M11 A3046 RMK AO2 SLP343 60000 T10561111 55004 FZRANO
  • 211956Z AUTO 26008KT 10SM OVC024 M06/M11 A3046 RMK AO2 SNE18 SLP342 P0000 T10561106 FZRANO

TAF KFKL
Valide du 21 à 18h jusqu'au 22 à 18h UTC


211726Z 2118/2218 28006KT P6SM -SHSN OVC025
FM212300 27005KT P6SM BKN040
FM220300 26004KT P6SM BKN070
FM221600 19004KT P6SM SKC



MET'MAP, la Météo Aéronautique d'un coup d'oeil ! - Copyright ORBIFLY Décembre 2007 - Disclaimer

ORBIFLY MET'MAP TEAM :

Programmation & Développement : Alexandra Zaïnal
Sur une idée originale de : Baudouin d'Aumeries
Assistance à la programmation : Marc-Olivier Méhu
Soutien technique & logistique : Manuel Goepfert

Contact : metmap@orbifly.com




SOURCES & CREDITS :

   NOAA       Earth
Advisory